createdAt,value
2023-06-24T00:03:04.572Z,10.20
2023-06-24T00:08:08.216Z,12.60
2023-06-24T00:13:13.823Z,11.40
2023-06-24T00:18:16.712Z,13.00
2023-06-24T00:23:27.781Z,11.20
2023-06-24T00:28:32.302Z,9.00
2023-06-24T00:33:37.550Z,9.30
2023-06-24T00:38:41.243Z,9.80
2023-06-24T00:43:44.102Z,10.50
2023-06-24T00:48:46.902Z,10.00
2023-06-24T00:53:51.096Z,9.00
2023-06-24T00:58:54.445Z,12.10
2023-06-24T01:03:57.440Z,8.30
2023-06-24T01:09:01.401Z,9.40
2023-06-24T01:14:04.418Z,12.10
2023-06-24T01:19:30.100Z,8.40
2023-06-24T01:24:59.400Z,10.30
2023-06-24T01:30:17.270Z,9.40
2023-06-24T01:35:27.854Z,12.30
2023-06-24T01:40:45.324Z,11.20
2023-06-24T01:45:52.508Z,10.60
2023-06-24T01:51:12.010Z,12.10
2023-06-24T01:56:17.466Z,11.40
2023-06-24T02:01:22.080Z,13.00
2023-06-24T02:06:27.991Z,11.90
2023-06-24T02:11:33.686Z,11.80
2023-06-24T02:16:39.162Z,11.60
2023-06-24T02:21:43.345Z,10.90
2023-06-24T02:26:49.661Z,9.90
2023-06-24T02:31:52.620Z,11.70
2023-06-24T02:36:55.414Z,9.60
2023-06-24T02:41:58.238Z,12.10
2023-06-24T02:47:01.613Z,11.90
2023-06-24T02:52:05.030Z,9.60
2023-06-24T02:57:09.798Z,9.00
2023-06-24T03:02:13.097Z,10.20
2023-06-24T03:07:16.189Z,10.00
2023-06-24T03:12:19.214Z,9.20
2023-06-24T03:17:22.119Z,11.80
2023-06-24T03:22:25.458Z,10.30
2023-06-24T03:27:28.320Z,10.40
2023-06-24T03:32:31.233Z,14.40
2023-06-24T03:37:34.093Z,11.90
2023-06-24T03:42:37.059Z,9.50
2023-06-24T03:47:40.024Z,9.40
2023-06-24T03:52:42.835Z,11.60
2023-06-24T03:57:45.659Z,11.80
2023-06-24T04:02:49.078Z,10.20
2023-06-24T04:07:53.530Z,13.00
2023-06-24T04:12:56.467Z,11.80
2023-06-24T04:17:59.321Z,10.00
2023-06-24T04:23:02.293Z,10.80
2023-06-24T04:28:08.090Z,10.60
2023-06-24T04:33:10.867Z,11.90
2023-06-24T04:38:19.201Z,9.80
2023-06-24T04:43:23.004Z,9.60
2023-06-24T04:48:26.092Z,10.00
2023-06-24T04:53:29.104Z,13.00
2023-06-24T04:58:32.073Z,11.50
2023-06-24T05:03:34.858Z,9.40
2023-06-24T05:08:37.673Z,9.00
2023-06-24T05:13:41.152Z,10.70
2023-06-24T05:18:46.504Z,14.40
2023-06-24T05:23:49.440Z,12.60
2023-06-24T05:28:52.386Z,11.30
2023-06-24T05:33:55.322Z,10.30
2023-06-24T05:38:58.175Z,10.00
2023-06-24T05:44:05.837Z,10.70
2023-06-24T05:49:08.687Z,9.60
2023-06-24T05:54:11.581Z,11.70
2023-06-24T05:59:14.397Z,11.80
2023-06-24T06:04:17.324Z,10.80
2023-06-24T06:09:22.013Z,8.50
2023-06-24T06:14:28.223Z,8.50
2023-06-24T06:19:31.712Z,7.90
2023-06-24T06:24:37.007Z,7.70
2023-06-24T06:29:39.823Z,8.10
2023-06-24T06:34:44.369Z,8.40
2023-06-24T06:39:47.354Z,9.60
2023-06-24T06:44:50.095Z,9.50
2023-06-24T06:49:52.957Z,9.70
2023-06-24T06:54:56.444Z,9.60
2023-06-24T06:59:59.855Z,8.10
2023-06-24T07:05:02.998Z,8.20
2023-06-24T07:10:07.297Z,6.30
2023-06-24T07:15:13.384Z,7.60
2023-06-24T07:20:16.564Z,8.40
2023-06-24T07:25:19.435Z,7.10
2023-06-24T07:30:22.287Z,7.90
2023-06-24T07:35:25.658Z,7.00
2023-06-24T07:40:28.518Z,6.70
2023-06-24T07:45:31.407Z,10.50
2023-06-24T07:50:35.722Z,7.80
2023-06-24T07:55:38.696Z,9.90
2023-06-24T08:00:42.308Z,7.20
2023-06-24T08:05:46.325Z,6.80
2023-06-24T08:10:50.875Z,6.90
2023-06-24T08:15:53.733Z,7.70
2023-06-24T08:20:56.762Z,6.60
2023-06-24T08:26:12.226Z,7.40
2023-06-24T08:31:19.920Z,6.40
2023-06-24T08:41:28.412Z,5.90
2023-06-24T08:46:34.789Z,5.70
2023-06-24T08:51:44.020Z,4.60
2023-06-24T08:56:46.889Z,5.20
2023-06-24T09:01:51.473Z,5.50
2023-06-24T09:06:54.436Z,5.00
2023-06-24T09:12:12.421Z,5.70
2023-06-24T09:17:18.683Z,5.70
2023-06-24T09:22:21.610Z,5.90
2023-06-24T09:27:25.228Z,5.30
2023-06-24T09:32:31.934Z,6.40
2023-06-24T09:37:35.402Z,5.20
2023-06-24T09:42:38.390Z,5.20
2023-06-24T09:47:41.549Z,5.60
2023-06-24T09:52:46.394Z,4.40
2023-06-24T09:57:54.569Z,8.70
2023-06-24T10:03:00.809Z,5.40
2023-06-24T10:08:08.130Z,4.90
2023-06-24T10:13:11.207Z,4.50
2023-06-24T10:18:32.804Z,5.40
2023-06-24T10:23:48.418Z,4.60
2023-06-24T10:29:07.416Z,4.30
2023-06-24T10:34:14.020Z,4.30
2023-06-24T10:39:41.292Z,4.80
2023-06-24T10:44:50.505Z,4.10
2023-06-24T10:49:53.445Z,6.20
2023-06-24T10:54:58.697Z,4.10
2023-06-24T11:00:03.041Z,4.60
2023-06-24T11:05:07.100Z,5.10
2023-06-24T11:10:14.289Z,4.70
2023-06-24T11:15:18.533Z,5.30
2023-06-24T11:20:21.943Z,6.50
2023-06-24T11:25:24.953Z,5.50
2023-06-24T11:30:29.479Z,4.90
2023-06-24T11:35:36.457Z,4.70
2023-06-24T11:40:40.398Z,4.40
2023-06-24T11:45:43.281Z,5.50
2023-06-24T11:50:55.150Z,6.20
2023-06-24T11:55:58.548Z,4.80
2023-06-24T12:01:01.745Z,4.10
2023-06-24T12:06:04.648Z,5.70
2023-06-24T12:11:07.637Z,5.90
2023-06-24T12:16:10.419Z,4.60
2023-06-24T12:21:13.380Z,4.50
2023-06-24T12:26:16.628Z,5.00
2023-06-24T12:31:19.430Z,5.90
2023-06-24T12:36:23.554Z,5.70
2023-06-24T12:41:28.265Z,5.80
2023-06-24T12:46:31.094Z,6.90
2023-06-24T12:51:34.514Z,4.60
2023-06-24T12:56:37.469Z,4.50
2023-06-24T13:01:40.724Z,4.70
2023-06-24T13:06:43.609Z,4.80
2023-06-24T13:11:46.770Z,6.00
2023-06-24T13:16:49.661Z,4.90
2023-06-24T13:21:52.570Z,4.40
2023-06-24T13:26:55.393Z,5.00
2023-06-24T13:31:58.252Z,4.80
2023-06-24T13:37:01.894Z,4.70
2023-06-24T13:42:04.999Z,5.00
2023-06-24T13:47:08.202Z,6.00
2023-06-24T13:52:11.077Z,4.40
2023-06-24T13:57:13.994Z,5.20
2023-06-24T14:02:17.010Z,5.70
2023-06-24T14:07:20.283Z,5.80
2023-06-24T14:12:23.479Z,5.30
2023-06-24T14:17:26.478Z,4.20
2023-06-24T14:27:35.331Z,4.80
2023-06-24T14:32:43.944Z,4.90
2023-06-24T14:37:46.812Z,5.60
2023-06-24T14:42:49.656Z,7.20
2023-06-24T14:47:52.835Z,5.90
2023-06-24T14:52:55.657Z,7.90
2023-06-24T14:57:58.943Z,6.50
2023-06-24T15:03:03.935Z,5.50
2023-06-24T15:13:12.961Z,5.10
2023-06-24T15:18:18.257Z,5.20
2023-06-24T15:23:22.408Z,6.10
2023-06-24T15:28:28.198Z,5.90
2023-06-24T15:33:31.254Z,6.00
2023-06-24T15:38:34.194Z,7.60
2023-06-24T15:43:37.128Z,9.20
2023-06-24T15:48:42.476Z,7.60
2023-06-24T15:53:45.500Z,6.20
2023-06-24T15:58:48.450Z,4.90
2023-06-24T16:03:53.896Z,5.60
2023-06-24T16:14:01.305Z,6.10
2023-06-24T16:19:04.774Z,4.90
2023-06-24T16:24:07.625Z,8.30
2023-06-24T16:29:10.459Z,8.00
2023-06-24T16:34:23.311Z,6.00
2023-06-24T16:39:27.495Z,10.90
2023-06-24T16:44:33.966Z,6.60
2023-06-24T16:49:36.780Z,7.00
2023-06-24T16:54:39.554Z,8.20
2023-06-24T16:59:42.501Z,7.10
2023-06-24T17:04:45.372Z,6.40
2023-06-24T17:09:48.349Z,5.80
2023-06-24T17:14:52.413Z,7.30
2023-06-24T17:19:55.279Z,4.30
2023-06-24T17:24:58.359Z,5.20
2023-06-24T17:30:02.721Z,9.90
2023-06-24T17:35:06.067Z,6.70
2023-06-24T17:40:10.009Z,5.30
2023-06-24T17:45:13.069Z,5.00
2023-06-24T17:50:16.511Z,5.70
2023-06-24T17:55:19.536Z,6.80
2023-06-24T18:00:22.477Z,7.40
2023-06-24T18:05:25.853Z,6.90
2023-06-24T18:10:28.949Z,6.40
2023-06-24T18:15:31.936Z,8.70
2023-06-24T18:20:35.080Z,9.80
2023-06-24T18:25:38.415Z,6.90
2023-06-24T18:30:41.244Z,6.70
2023-06-24T18:35:44.227Z,8.20
2023-06-24T18:40:47.024Z,9.90
2023-06-24T18:45:51.768Z,11.80
2023-06-24T18:50:54.863Z,8.70
2023-06-24T18:55:58.231Z,8.40
2023-06-24T19:01:01.603Z,9.30
2023-06-24T19:06:04.406Z,6.60
2023-06-24T19:11:07.394Z,7.30
2023-06-24T19:16:10.205Z,7.90
2023-06-24T19:21:13.250Z,6.70
2023-06-24T19:26:16.132Z,9.10
2023-06-24T19:31:19.225Z,7.80
2023-06-24T19:36:22.261Z,8.60
2023-06-24T19:41:25.068Z,7.90
2023-06-24T19:46:40.122Z,9.30
2023-06-24T19:51:44.475Z,7.60
2023-06-24T19:56:47.372Z,7.40
2023-06-24T20:01:50.217Z,7.20
2023-06-24T20:06:53.206Z,6.00
2023-06-24T20:11:56.262Z,7.40
2023-06-24T20:16:59.030Z,6.50
2023-06-24T20:22:02.556Z,8.60
2023-06-24T20:27:07.825Z,7.60
2023-06-24T20:32:11.955Z,9.60
2023-06-24T20:37:14.917Z,7.70
2023-06-24T20:42:17.804Z,6.70
2023-06-24T20:47:20.606Z,10.90
2023-06-24T20:52:23.490Z,8.60
2023-06-24T20:57:26.300Z,10.00
2023-06-24T21:02:30.300Z,8.80
2023-06-24T21:07:34.540Z,8.30
2023-06-24T21:12:49.620Z,10.90
2023-06-24T21:18:01.723Z,10.20
2023-06-24T21:23:05.638Z,13.70
2023-06-24T21:28:08.652Z,14.80
2023-06-24T21:33:11.630Z,14.20
2023-06-24T21:38:14.431Z,13.20
2023-06-24T21:43:17.580Z,14.20
2023-06-24T21:48:22.861Z,13.10
2023-06-24T21:53:28.350Z,11.00
2023-06-24T21:58:32.844Z,12.20
2023-06-24T22:03:35.646Z,14.70
2023-06-24T22:08:38.611Z,12.20
2023-06-24T22:13:41.473Z,12.70
2023-06-24T22:18:44.303Z,17.40
2023-06-24T22:23:47.183Z,12.20
2023-06-24T22:28:50.510Z,15.20
2023-06-24T22:33:58.691Z,14.40
2023-06-24T22:39:17.064Z,14.30
2023-06-24T22:44:26.564Z,14.70
2023-06-24T22:49:30.276Z,14.10
2023-06-24T22:54:33.044Z,12.40
2023-06-24T22:59:35.862Z,12.80
2023-06-24T23:04:38.846Z,14.60
2023-06-24T23:09:42.026Z,13.80
2023-06-24T23:14:45.178Z,16.20
2023-06-24T23:19:50.047Z,15.50
2023-06-24T23:24:56.301Z,12.50
2023-06-24T23:30:02.045Z,14.00
2023-06-24T23:35:11.919Z,20.20
2023-06-24T23:40:14.823Z,15.20
2023-06-24T23:45:17.975Z,13.70
2023-06-24T23:50:20.782Z,16.10
2023-06-24T23:55:24.975Z,15.60
